Time;durP1;ratioP1;P1;durP2;ratioP2;P2;SDS_P1;SDS_P2;PMS_P1;PMS_P2;Temp;Humidity;BMP_temperature;BMP_pressure;BME280_temperature;BME280_humidity;BME280_pressure;Samples;Min_cycle;Max_cycle;Signal;HPM_P1;HPM_P2
2022/01/30 00:01:47;;;;;;;3.00;1.50;;;22.00;34.20;;;;;;5036253;28;20329;-54
2022/01/30 00:04:13;;;;;;;5.60;1.40;;;22.00;34.10;;;;;;5046265;28;20052;-49
2022/01/30 00:06:39;;;;;;;3.15;1.17;;;22.00;34.10;;;;;;5033224;28;20413;-54
2022/01/30 00:09:08;;;;;;;3.50;1.27;;;22.00;34.10;;;;;;5038856;28;20032;-53
2022/01/30 00:11:37;;;;;;;3.67;1.52;;;22.00;34.10;;;;;;5034282;28;20442;-48
2022/01/30 00:14:05;;;;;;;3.70;1.42;;;22.00;34.10;;;;;;5025101;28;20343;-53
2022/01/30 00:16:34;;;;;;;4.00;1.30;;;22.00;34.10;;;;;;5052697;28;20037;-49
2022/01/30 00:26:28;;;;;;;2.90;1.08;;;22.00;34.00;;;;;;5054100;28;20170;-53
2022/01/30 00:28:54;;;;;;;3.20;1.30;;;22.00;34.00;;;;;;5051805;28;20028;-52
2022/01/30 00:31:21;;;;;;;3.65;1.55;;;22.00;34.00;;;;;;5035451;28;20029;-54
2022/01/30 00:33:47;;;;;;;4.20;1.50;;;22.00;34.00;;;;;;5036361;28;20437;-53
2022/01/30 00:36:13;;;;;;;3.67;1.33;;;22.00;33.90;;;;;;5054631;28;20380;-54
2022/01/30 00:38:39;;;;;;;6.65;1.70;;;22.00;33.90;;;;;;5048762;28;20139;-50
2022/01/30 00:41:06;;;;;;;4.00;1.80;;;22.00;33.90;;;;;;5038746;28;20033;-50
2022/01/30 00:43:31;;;;;;;3.47;1.42;;;22.00;33.80;;;;;;5046078;28;20377;-51
2022/01/30 00:45:58;;;;;;;3.42;1.30;;;22.00;33.80;;;;;;5053633;28;20448;-52
2022/01/30 00:48:25;;;;;;;3.75;1.35;;;22.00;33.80;;;;;;5043066;28;20041;-50
2022/01/30 00:50:51;;;;;;;5.05;1.52;;;22.00;33.80;;;;;;5017743;28;20029;-53
2022/01/30 00:53:17;;;;;;;3.15;1.17;;;22.00;33.70;;;;;;5026151;28;20078;-52
2022/01/30 00:55:44;;;;;;;4.63;1.55;;;22.00;33.70;;;;;;5036580;28;20135;-52
2022/01/30 00:58:10;;;;;;;6.25;1.90;;;22.00;33.70;;;;;;5028218;28;20123;-53
2022/01/30 01:00:36;;;;;;;6.18;1.48;;;21.90;33.60;;;;;;5017589;28;20029;-56
2022/01/30 01:03:03;;;;;;;3.63;1.23;;;21.90;33.60;;;;;;5025335;28;20336;-50
2022/01/30 01:05:31;;;;;;;4.38;1.40;;;21.90;33.60;;;;;;5035181;28;20053;-52
2022/01/30 01:07:59;;;;;;;5.22;1.55;;;22.00;33.60;;;;;;5022469;28;20349;-56
2022/01/30 01:11:25;;;;;;;4.40;1.52;;;21.90;33.60;;;;;;5017529;28;20120;-54
2022/01/30 01:24:05;;;;;;;2.40;1.05;;;21.90;33.50;;;;;;5031330;28;20045;-56
2022/01/30 01:26:31;;;;;;;3.97;1.17;;;21.90;33.50;;;;;;5053761;28;20028;-55
2022/01/30 01:28:57;;;;;;;3.67;1.30;;;21.90;33.40;;;;;;5053922;28;20347;-57
2022/01/30 01:31:23;;;;;;;2.90;1.30;;;22.00;33.40;;;;;;5052848;28;20108;-53
2022/01/30 01:36:17;;;;;;;3.28;1.42;;;21.90;33.30;;;;;;5053885;28;20040;-53
2022/01/30 01:38:43;;;;;;;4.03;1.40;;;21.90;33.30;;;;;;5050374;28;20316;-52
2022/01/30 01:41:09;;;;;;;3.30;1.20;;;21.90;33.20;;;;;;5052158;28;20079;-60
2022/01/30 01:43:36;;;;;;;2.92;1.30;;;21.90;33.20;;;;;;5042725;28;20040;-53
2022/01/30 01:46:03;;;;;;;4.32;1.40;;;21.90;33.20;;;;;;5035307;28;20102;-51
2022/01/30 01:48:34;;;;;;;3.50;1.05;;;21.90;33.10;;;;;;5052842;28;20025;-51
2022/01/30 01:51:14;;;;;;;2.53;1.20;;;21.90;33.10;;;;;;5035766;28;20348;-57
2022/01/30 01:53:40;;;;;;;4.40;1.40;;;21.90;33.10;;;;;;5027805;28;20468;-56
2022/01/30 01:56:06;;;;;;;2.58;1.00;;;21.90;33.10;;;;;;5054958;28;20169;-55
2022/01/30 01:58:32;;;;;;;3.58;1.25;;;21.90;33.10;;;;;;5020793;28;20232;-58
2022/01/30 02:01:16;;;;;;;3.13;0.90;;;21.90;33.10;;;;;;5040222;28;20150;-58
2022/01/30 02:03:45;;;;;;;3.65;1.05;;;21.90;33.10;;;;;;5031148;28;20029;-51
2022/01/30 02:06:15;;;;;;;3.55;1.10;;;21.90;33.10;;;;;;5038783;28;20028;-54
2022/01/30 02:08:45;;;;;;;3.65;1.10;;;21.80;33.10;;;;;;5040755;28;20029;-51
2022/01/30 02:11:16;;;;;;;3.05;1.15;;;21.80;33.20;;;;;;5039308;28;20455;-51
2022/01/30 02:24:59;;;;;;;2.50;0.98;;;21.80;33.30;;;;;;5020206;28;20025;-54
2022/01/30 02:27:31;;;;;;;2.33;1.05;;;21.80;33.30;;;;;;5020092;28;20041;-52
2022/01/30 02:29:58;;;;;;;2.95;1.10;;;21.80;33.20;;;;;;5037934;28;20107;-50
2022/01/30 02:32:24;;;;;;;2.97;1.23;;;21.80;33.20;;;;;;5028168;28;20032;-52
2022/01/30 02:34:49;;;;;;;2.90;1.30;;;21.80;33.20;;;;;;5057812;28;20029;-53
2022/01/30 02:37:17;;;;;;;2.75;0.88;;;21.80;33.20;;;;;;5031424;28;20090;-52
2022/01/30 02:39:43;;;;;;;3.30;1.08;;;21.80;33.20;;;;;;5020039;28;20037;-49
2022/01/30 02:42:13;;;;;;;2.72;0.90;;;21.80;33.20;;;;;;5025908;28;20022;-50
2022/01/30 02:44:47;;;;;;;1.40;0.80;;;21.80;33.10;;;;;;5029340;28;20523;-52
2022/01/30 02:47:26;;;;;;;3.17;0.90;;;21.80;33.10;;;;;;5030678;28;20337;-52
2022/01/30 02:50:19;;;;;;;2.28;0.90;;;21.80;33.10;;;;;;5030521;28;20052;-53
2022/01/30 02:52:41;;;;;;;2.22;0.70;;;21.80;33.10;;;;;;5042510;28;20046;-46
2022/01/30 02:55:09;;;;;;;1.88;0.80;;;21.80;33.10;;;;;;5050307;28;20133;-52
2022/01/30 02:57:35;;;;;;;2.60;0.93;;;21.80;33.00;;;;;;5031714;28;20158;-47
2022/01/30 03:00:02;;;;;;;3.28;0.98;;;21.80;33.00;;;;;;5039186;28;20467;-52
2022/01/30 03:02:28;;;;;;;5.55;1.13;;;21.80;33.00;;;;;;5037457;28;20025;-50
2022/01/30 03:04:54;;;;;;;2.25;0.90;;;21.70;32.90;;;;;;5038176;28;20021;-51
2022/01/30 03:07:19;;;;;;;2.10;0.73;;;21.70;32.90;;;;;;5021149;28;20429;-50
2022/01/30 03:09:54;;;;;;;2.05;0.80;;;21.70;32.90;;;;;;5028267;28;20021;-51
2022/01/30 03:12:21;;;;;;;2.75;1.10;;;21.80;32.90;;;;;;5037904;28;20128;-47
2022/01/30 03:14:47;;;;;;;1.70;0.80;;;21.70;32.80;;;;;;5048274;28;20049;-51
2022/01/30 03:17:13;;;;;;;2.60;0.98;;;21.70;32.80;;;;;;5029404;28;20119;-51
2022/01/30 03:19:38;;;;;;;2.08;0.80;;;21.70;32.80;;;;;;5048783;28;20052;-48
2022/01/30 03:22:04;;;;;;;2.35;0.90;;;21.70;32.80;;;;;;5019182;28;20033;-53
2022/01/30 03:24:35;;;;;;;2.35;0.95;;;21.70;32.80;;;;;;5023415;28;20060;-49
2022/01/30 03:27:11;;;;;;;2.40;0.90;;;21.70;32.80;;;;;;5028318;28;20025;-50
2022/01/30 03:29:50;;;;;;;3.30;1.02;;;21.70;32.80;;;;;;5026654;28;20048;-47
2022/01/30 03:32:23;;;;;;;2.45;0.70;;;21.70;32.80;;;;;;5025888;28;20087;-49
2022/01/30 03:34:48;;;;;;;2.40;0.68;;;21.70;32.80;;;;;;5027172;28;20025;-50
2022/01/30 03:37:14;;;;;;;1.75;1.00;;;21.70;32.80;;;;;;5023029;28;20040;-46
2022/01/30 03:39:41;;;;;;;2.42;0.70;;;21.70;32.80;;;;;;5022184;28;20132;-49
2022/01/30 03:42:07;;;;;;;2.85;0.82;;;21.70;32.70;;;;;;5055104;28;20021;-50
2022/01/30 03:44:33;;;;;;;2.22;0.90;;;21.70;32.70;;;;;;5030056;28;20021;-46
2022/01/30 03:46:59;;;;;;;2.42;0.90;;;21.70;32.70;;;;;;5048320;28;20035;-52
2022/01/30 03:49:26;;;;;;;2.50;0.85;;;21.70;32.70;;;;;;5036497;28;20036;-52
2022/01/30 03:51:53;;;;;;;3.33;1.05;;;21.70;32.70;;;;;;5026306;28;20396;-47
2022/01/30 03:54:24;;;;;;;3.53;0.93;;;21.70;32.70;;;;;;5021512;28;20120;-50
2022/01/30 03:56:50;;;;;;;3.92;1.00;;;21.70;32.70;;;;;;5033191;28;20517;-50
2022/01/30 03:59:16;;;;;;;1.35;0.57;;;21.60;32.60;;;;;;5028884;28;20105;-53
2022/01/30 04:01:42;;;;;;;1.52;0.57;;;21.70;33.20;;;;;;5015142;28;20021;-54
2022/01/30 04:04:08;;;;;;;2.47;1.00;;;21.60;32.50;;;;;;5016499;28;20021;-53
2022/01/30 04:06:34;;;;;;;2.88;0.90;;;21.60;32.50;;;;;;5023604;28;20052;-53
2022/01/30 04:09:07;;;;;;;2.30;0.93;;;21.60;32.50;;;;;;5029922;28;20033;-50
2022/01/30 04:11:49;;;;;;;3.00;1.15;;;21.60;32.50;;;;;;5028384;28;20517;-50
2022/01/30 04:14:42;;;;;;;2.60;0.75;;;21.60;32.50;;;;;;5024008;28;20038;-51
2022/01/30 04:17:26;;;;;;;2.47;0.68;;;21.60;32.50;;;;;;5015588;28;20041;-51
2022/01/30 04:20:10;;;;;;;2.20;0.88;;;21.60;32.50;;;;;;5027710;28;20348;-51
2022/01/30 04:22:49;;;;;;;3.55;0.80;;;21.60;32.50;;;;;;5033429;28;20055;-48
2022/01/30 04:25:43;;;;;;;2.90;0.70;;;21.60;32.50;;;;;;5018333;28;20029;-49
2022/01/30 04:28:26;;;;;;;1.65;0.60;;;21.50;32.40;;;;;;5035088;28;20029;-50
2022/01/30 04:31:12;;;;;;;2.42;0.90;;;21.50;32.40;;;;;;5015692;28;20045;-53
2022/01/30 04:34:11;;;;;;;2.67;0.77;;;21.50;32.40;;;;;;4982612;28;20464;-49
2022/01/30 04:37:01;;;;;;;1.80;0.63;;;21.50;32.40;;;;;;5014952;28;20033;-52
2022/01/30 04:52:22;;;;;;;1.38;0.60;;;21.40;32.40;;;;;;5021263;28;20040;-50
2022/01/30 05:01:19;;;;;;;2.17;0.90;;;21.50;32.40;;;;;;5009130;28;20032;-47
2022/01/30 05:04:48;;;;;;;2.65;1.00;;;21.40;32.40;;;;;;5036565;28;20106;-51
2022/01/30 05:09:55;;;;;;;2.63;0.70;;;21.40;32.40;;;;;;5039643;28;20353;-50
2022/01/30 05:12:54;;;;;;;1.77;0.70;;;21.40;32.40;;;;;;5021600;28;20314;-52
2022/01/30 05:15:23;;;;;;;2.45;0.93;;;21.40;32.40;;;;;;5036309;28;20317;-50
2022/01/30 05:18:04;;;;;;;1.58;0.73;;;21.40;32.40;;;;;;5053146;28;20037;-50
2022/01/30 05:20:52;;;;;;;3.80;1.10;;;21.40;32.40;;;;;;5035557;28;20033;-49
2022/01/30 05:23:50;;;;;;;1.73;0.70;;;21.40;32.40;;;;;;5009597;28;20338;-49
2022/01/30 05:26:49;;;;;;;1.23;0.50;;;21.40;32.40;;;;;;5001476;28;20030;-52
2022/01/30 05:29:44;;;;;;;2.05;0.70;;;21.40;32.40;;;;;;5020084;28;20030;-50
2022/01/30 05:32:29;;;;;;;2.67;0.95;;;21.40;32.40;;;;;;5040411;28;20048;-50
2022/01/30 05:35:25;;;;;;;2.58;0.88;;;21.40;32.40;;;;;;4977486;28;20039;-49
2022/01/30 05:38:21;;;;;;;1.48;0.70;;;21.40;32.40;;;;;;5021453;28;20460;-48
2022/01/30 05:41:06;;;;;;;1.80;0.75;;;21.40;32.40;;;;;;5052921;28;20108;-49
2022/01/30 05:43:51;;;;;;;3.97;1.08;;;21.40;32.40;;;;;;5047066;28;20037;-54
2022/01/30 05:46:52;;;;;;;2.65;1.02;;;21.40;32.40;;;;;;5040329;28;20164;-51
2022/01/30 05:49:37;;;;;;;2.67;0.93;;;21.40;33.00;;;;;;5058072;28;20044;-47
2022/01/30 05:52:11;;;;;;;2.55;0.88;;;21.30;32.30;;;;;;5050777;28;20041;-52
2022/01/30 05:55:00;;;;;;;2.80;1.08;;;21.30;32.30;;;;;;5037948;28;20441;-52
2022/01/30 05:57:27;;;;;;;3.13;0.82;;;21.30;32.40;;;;;;5029577;28;20102;-49
2022/01/30 05:59:55;;;;;;;3.28;1.00;;;21.30;32.40;;;;;;5033944;28;20024;-49
2022/01/30 06:02:42;;;;;;;3.72;1.33;;;21.30;32.40;;;;;;5047693;28;20396;-51
2022/01/30 06:05:09;;;;;;;3.50;0.90;;;21.30;32.40;;;;;;5040042;28;20024;-52
2022/01/30 06:07:37;;;;;;;2.85;0.93;;;21.30;32.40;;;;;;5055905;28;20040;-48
2022/01/30 06:10:04;;;;;;;3.05;0.93;;;21.30;32.40;;;;;;5040689;28;20032;-52
2022/01/30 06:12:29;;;;;;;2.83;0.85;;;21.30;32.30;;;;;;5024394;28;20021;-51
2022/01/30 06:14:55;;;;;;;3.08;0.93;;;21.30;32.30;;;;;;5039950;28;20025;-54
2022/01/30 06:17:22;;;;;;;3.22;0.90;;;21.30;32.30;;;;;;5035379;28;20044;-57
2022/01/30 06:20:19;;;;;;;3.15;0.63;;;21.30;32.30;;;;;;5043599;28;20066;-54
2022/01/30 06:23:03;;;;;;;3.28;0.98;;;21.30;32.40;;;;;;5039347;28;20080;-55
2022/01/30 06:25:50;;;;;;;1.58;0.55;;;21.30;32.40;;;;;;5051931;28;20439;-54
2022/01/30 06:28:16;;;;;;;2.60;0.82;;;21.30;32.40;;;;;;5023303;28;20029;-54
2022/01/30 06:31:01;;;;;;;2.75;0.70;;;21.30;32.40;;;;;;5041489;28;20171;-54
2022/01/30 06:33:33;;;;;;;2.60;1.10;;;21.30;32.50;;;;;;5038675;28;20336;-49
2022/01/30 06:36:28;;;;;;;;;;;21.30;32.50;;;;;;5000985;28;20038;-53
2022/01/30 06:39:04;;;;;;;1.77;0.63;;;21.20;32.50;;;;;;5028824;28;19962;-49
2022/01/30 06:41:50;;;;;;;2.85;0.85;;;21.20;32.50;;;;;;5056670;28;20040;-53
2022/01/30 06:44:35;;;;;;;3.78;1.00;;;21.30;32.50;;;;;;5043433;28;20083;-51
2022/01/30 06:47:19;;;;;;;2.85;0.75;;;21.20;32.50;;;;;;5051663;28;20186;-56
2022/01/30 06:50:03;;;;;;;1.35;0.73;;;21.30;32.60;;;;;;5055714;28;20043;-52
2022/01/30 06:52:52;;;;;;;2.50;0.98;;;21.20;32.50;;;;;;5057222;28;20322;-53
2022/01/30 06:55:20;;;;;;;3.53;1.10;;;21.20;32.50;;;;;;5047300;28;20060;-55
2022/01/30 06:58:04;;;;;;;3.38;1.13;;;21.20;32.50;;;;;;5046916;28;20049;-51
2022/01/30 07:00:49;;;;;;;1.45;0.75;;;21.20;32.50;;;;;;5050614;28;20080;-50
2022/01/30 07:03:44;;;;;;;2.65;0.95;;;21.20;32.50;;;;;;5028470;28;20124;-48
2022/01/30 07:06:31;;;;;;;3.45;1.10;;;21.20;32.60;;;;;;5031220;28;20025;-49
2022/01/30 07:08:56;;;;;;;2.55;1.00;;;21.20;32.60;;;;;;5040141;28;20083;-49
2022/01/30 07:11:22;;;;;;;3.50;0.82;;;21.20;32.60;;;;;;5045149;28;20057;-51
2022/01/30 07:13:48;;;;;;;4.60;1.42;;;21.20;32.60;;;;;;5051882;28;20029;-51
2022/01/30 07:16:15;;;;;;;2.72;1.20;;;21.20;32.60;;;;;;5051144;28;20051;-50
2022/01/30 07:18:42;;;;;;;2.92;0.90;;;21.20;32.60;;;;;;5055887;28;20037;-51
2022/01/30 07:21:09;;;;;;;2.45;0.82;;;21.20;32.60;;;;;;5033074;28;20024;-53
2022/01/30 07:23:38;;;;;;;2.05;0.85;;;21.20;32.60;;;;;;5055383;28;20040;-51
2022/01/30 07:26:04;;;;;;;3.35;0.95;;;21.20;32.60;;;;;;5054545;28;20048;-55
2022/01/30 07:28:30;;;;;;;2.70;1.00;;;21.20;32.60;;;;;;5055325;28;20033;-47
2022/01/30 07:30:56;;;;;;;2.05;0.75;;;21.20;32.60;;;;;;5050644;28;20029;-49
2022/01/30 07:33:23;;;;;;;3.72;1.10;;;21.20;32.60;;;;;;5048847;28;20029;-51
2022/01/30 07:35:52;;;;;;;3.35;1.20;;;21.20;32.60;;;;;;5021216;28;20033;-46
2022/01/30 07:38:20;;;;;;;4.70;1.58;;;21.20;32.50;;;;;;5047290;28;20381;-50
2022/01/30 07:40:45;;;;;;;2.22;1.02;;;21.20;32.50;;;;;;5040679;28;20033;-49
2022/01/30 07:43:11;;;;;;;3.00;0.90;;;21.20;32.60;;;;;;5036344;28;20037;-50
2022/01/30 07:45:48;;;;;;;4.72;1.27;;;21.20;32.50;;;;;;5018773;28;20026;-51
2022/01/30 07:48:15;;;;;;;1.80;0.80;;;21.20;32.50;;;;;;5036839;28;20037;-50
2022/01/30 07:50:41;;;;;;;3.08;1.08;;;21.20;32.60;;;;;;5036467;28;20367;-49
2022/01/30 07:53:07;;;;;;;2.80;1.17;;;21.20;32.60;;;;;;5051211;28;20431;-55
2022/01/30 07:55:33;;;;;;;3.92;0.93;;;21.10;32.50;;;;;;5052730;28;20136;-55
2022/01/30 07:57:59;;;;;;;4.18;1.23;;;21.20;32.60;;;;;;5035868;28;20436;-47
2022/01/30 08:00:25;;;;;;;3.50;1.20;;;21.20;32.60;;;;;;5044309;28;20040;-47
2022/01/30 08:02:50;;;;;;;3.55;1.20;;;21.10;32.50;;;;;;5042759;28;20056;-55
2022/01/30 08:05:16;;;;;;;4.18;1.10;;;21.10;32.50;;;;;;5049219;28;20021;-54
2022/01/30 08:07:42;;;;;;;5.55;1.60;;;21.10;32.50;;;;;;5045581;28;20107;-55
2022/01/30 08:10:08;;;;;;;2.55;0.90;;;21.20;32.70;;;;;;5045664;28;20017;-53
2022/01/30 08:12:35;;;;;;;4.57;1.05;;;21.20;32.80;;;;;;5043840;28;20017;-54
2022/01/30 08:15:02;;;;;;;3.67;1.30;;;21.20;32.80;;;;;;5048453;28;20025;-58
2022/01/30 08:17:32;;;;;;;2.13;0.80;;;21.20;32.90;;;;;;5046863;28;20076;-51
2022/01/30 08:19:59;;;;;;;3.15;1.00;;;21.20;33.00;;;;;;5047552;28;20044;-56
2022/01/30 08:22:29;;;;;;;3.65;1.30;;;21.30;33.10;;;;;;5054121;28;20048;-50
2022/01/30 08:24:55;;;;;;;2.50;0.93;;;21.30;33.10;;;;;;5049859;28;20035;-52
2022/01/30 08:27:21;;;;;;;2.83;1.30;;;21.30;33.00;;;;;;5052749;28;20066;-58
2022/01/30 08:29:47;;;;;;;2.90;1.30;;;21.30;33.00;;;;;;5053809;28;20047;-57
2022/01/30 08:32:22;;;;;;;3.47;1.25;;;21.30;33.10;;;;;;5053792;28;20021;-55
2022/01/30 08:34:49;;;;;;;6.40;1.63;;;21.30;33.10;;;;;;5044646;28;20337;-54
2022/01/30 08:37:15;;;;;;;3.63;1.35;;;21.30;33.20;;;;;;5051553;28;20101;-54
2022/01/30 08:39:41;;;;;;;4.68;1.30;;;21.40;33.30;;;;;;5054352;28;20110;-55
2022/01/30 08:42:07;;;;;;;4.47;1.60;;;21.40;33.20;;;;;;5048815;28;20480;-54
2022/01/30 08:44:33;;;;;;;4.07;1.40;;;21.50;33.20;;;;;;5042427;28;20356;-54
2022/01/30 08:47:00;;;;;;;6.28;1.60;;;21.60;33.10;;;;;;5035097;28;20176;-55
2022/01/30 08:49:26;;;;;;;5.82;1.60;;;21.70;33.10;;;;;;5045360;28;20412;-53
2022/01/30 08:51:52;;;;;;;4.47;1.52;;;21.80;33.00;;;;;;5035437;28;20029;-51
2022/01/30 08:54:19;;;;;;;3.90;1.40;;;21.90;32.90;;;;;;5042400;28;20021;-54
2022/01/30 08:56:45;;;;;;;4.22;1.25;;;22.00;32.90;;;;;;5053337;28;20043;-53
2022/01/30 08:59:11;;;;;;;4.72;1.48;;;22.00;32.70;;;;;;5035854;28;20033;-54
2022/01/30 09:01:37;;;;;;;4.78;1.27;;;22.10;32.70;;;;;;5041108;28;20108;-55
2022/01/30 09:04:03;;;;;;;3.65;1.35;;;22.20;32.60;;;;;;5041669;28;20492;-53
2022/01/30 09:06:30;;;;;;;4.70;1.23;;;22.30;32.60;;;;;;5037158;28;20050;-56
2022/01/30 09:08:55;;;;;;;5.93;1.70;;;22.30;32.40;;;;;;5017742;28;20022;-49
2022/01/30 09:11:21;;;;;;;5.20;1.67;;;22.50;32.40;;;;;;5047285;28;20045;-54
2022/01/30 09:13:47;;;;;;;3.40;1.25;;;22.60;32.30;;;;;;5049075;28;20108;-53
2022/01/30 09:16:13;;;;;;;4.03;1.73;;;22.60;32.10;;;;;;5043039;28;20047;-52
2022/01/30 09:18:48;;;;;;;3.05;1.23;;;22.70;32.00;;;;;;5029371;28;20031;-57
2022/01/30 09:21:22;;;;;;;5.00;1.83;;;22.80;32.00;;;;;;5040347;28;20021;-51
2022/01/30 09:23:47;;;;;;;4.90;1.77;;;22.80;31.90;;;;;;5049487;28;20073;-52
2022/01/30 09:26:13;;;;;;;3.15;1.13;;;22.90;32.00;;;;;;5043568;28;20025;-55
2022/01/30 09:28:39;;;;;;;7.00;2.10;;;23.00;32.00;;;;;;5021353;28;20036;-54
2022/01/30 09:31:05;;;;;;;4.85;1.65;;;23.00;32.00;;;;;;5041086;28;20340;-55
2022/01/30 09:33:34;;;;;;;3.35;1.50;;;23.10;32.00;;;;;;5039209;28;20108;-60
2022/01/30 09:36:00;;;;;;;3.15;1.50;;;23.10;31.90;;;;;;5044544;28;20136;-45
2022/01/30 09:38:25;;;;;;;5.75;1.95;;;23.20;31.90;;;;;;5049545;28;20035;-54
2022/01/30 09:40:54;;;;;;;3.38;1.30;;;23.20;31.70;;;;;;5045907;28;20027;-56
2022/01/30 09:43:21;;;;;;;4.93;1.80;;;23.20;31.60;;;;;;5050054;28;20043;-57
2022/01/30 09:45:48;;;;;;;3.97;1.23;;;23.20;31.60;;;;;;5054590;28;20021;-56
2022/01/30 09:48:14;;;;;;;3.63;1.42;;;23.30;31.60;;;;;;5063664;28;20021;-49
2022/01/30 09:50:42;;;;;;;6.60;2.53;;;23.30;31.50;;;;;;5050572;28;20017;-58
2022/01/30 09:53:07;;;;;;;6.82;2.80;;;23.40;31.60;;;;;;5045850;28;20115;-60
2022/01/30 09:55:33;;;;;;;6.50;3.17;;;23.50;31.70;;;;;;5048103;28;20068;-47
2022/01/30 09:58:01;;;;;;;8.10;3.45;;;23.60;31.80;;;;;;5052090;28;20058;-52
2022/01/30 10:00:27;;;;;;;9.02;3.80;;;23.60;31.90;;;;;;5040352;28;20028;-52
2022/01/30 10:02:55;;;;;;;10.05;4.35;;;23.70;32.10;;;;;;5034916;28;20021;-56
2022/01/30 10:05:21;;;;;;;10.45;4.38;;;23.80;32.40;;;;;;5042961;28;20338;-54
2022/01/30 10:07:55;;;;;;;12.38;5.50;;;23.90;32.80;;;;;;5043731;28;20022;-52
2022/01/30 10:10:28;;;;;;;14.40;5.22;;;24.00;33.20;;;;;;5035441;28;20399;-57
2022/01/30 10:13:08;;;;;;;12.50;5.40;;;24.00;33.60;;;;;;5040485;28;20037;-48
2022/01/30 10:15:56;;;;;;;16.00;5.57;;;24.00;33.90;;;;;;5040874;28;20272;-50
2022/01/30 10:18:25;;;;;;;13.65;6.75;;;24.10;34.40;;;;;;5045187;28;20029;-54
2022/01/30 10:20:54;;;;;;;16.65;7.18;;;24.10;34.60;;;;;;5038135;28;20037;-49
2022/01/30 10:23:31;;;;;;;14.55;6.85;;;24.10;34.70;;;;;;5051556;28;20122;-43
2022/01/30 10:25:57;;;;;;;16.95;7.32;;;24.10;34.70;;;;;;5037908;28;20429;-49
2022/01/30 10:28:28;;;;;;;12.60;6.68;;;24.10;34.90;;;;;;5048868;28;20036;-45
2022/01/30 10:30:58;;;;;;;18.13;6.65;;;24.10;35.30;;;;;;5039049;28;20032;-44
2022/01/30 10:33:48;;;;;;;15.65;7.15;;;24.10;35.40;;;;;;5046215;28;20087;-47
2022/01/30 10:36:21;;;;;;;17.38;8.30;;;24.10;35.70;;;;;;5046160;28;20039;-52
2022/01/30 10:39:04;;;;;;;19.63;7.88;;;24.10;36.10;;;;;;5050029;28;20435;-50
2022/01/30 10:41:41;;;;;;;18.67;9.07;;;24.10;36.40;;;;;;5054601;28;20446;-54
2022/01/30 10:44:08;;;;;;;20.92;8.93;;;24.00;36.80;;;;;;5044598;28;20029;-49
2022/01/30 10:46:45;;;;;;;15.50;7.47;;;24.00;37.20;;;;;;5045861;28;20021;-56
2022/01/30 10:49:16;;;;;;;12.43;5.18;;;24.00;37.20;;;;;;5044472;28;20065;-57
2022/01/30 10:51:56;;;;;;;8.43;3.55;;;24.00;36.00;;;;;;5045999;28;20029;-55
2022/01/30 10:54:25;;;;;;;7.85;2.80;;;23.90;34.90;;;;;;5037326;28;20065;-53
2022/01/30 10:57:01;;;;;;;7.72;2.53;;;23.70;34.50;;;;;;5054094;28;20175;-50
2022/01/30 10:59:28;;;;;;;7.65;3.22;;;23.60;34.10;;;;;;5048021;28;20515;-51
2022/01/30 11:01:54;;;;;;;9.35;4.88;;;23.50;34.50;;;;;;5047545;28;20044;-53
2022/01/30 11:04:31;;;;;;;10.30;4.57;;;23.50;35.30;;;;;;5038230;28;20029;-50
2022/01/30 11:07:00;;;;;;;9.38;4.57;;;23.50;35.90;;;;;;5042199;28;20025;-53
2022/01/30 11:09:47;;;;;;;9.13;4.13;;;23.50;36.00;;;;;;5040667;28;20112;-51
2022/01/30 11:12:15;;;;;;;11.05;4.55;;;23.50;35.90;;;;;;5046844;28;20037;-57
2022/01/30 11:17:16;;;;;;;8.70;4.05;;;23.60;35.60;;;;;;5052641;28;20029;-50
2022/01/30 11:19:44;;;;;;;9.23;4.07;;;23.60;35.30;;;;;;5043798;28;20158;-48
2022/01/30 11:22:15;;;;;;;9.40;3.85;;;23.60;35.00;;;;;;5042578;28;20330;-50
2022/01/30 11:24:59;;;;;;;11.32;4.13;;;23.70;34.90;;;;;;5050943;28;20377;-54
2022/01/30 11:27:25;;;;;;;8.77;3.28;;;23.70;34.60;;;;;;5047801;28;20487;-51
2022/01/30 11:29:52;;;;;;;8.48;3.38;;;23.60;34.60;;;;;;5043075;28;20033;-53
2022/01/30 11:32:20;;;;;;;8.35;3.45;;;23.70;34.40;;;;;;5051703;28;20322;-55
2022/01/30 11:34:46;;;;;;;10.25;3.85;;;23.60;34.20;;;;;;5046881;28;20025;-48
2022/01/30 11:37:16;;;;;;;9.25;3.38;;;23.70;34.20;;;;;;5047287;28;20037;-53
2022/01/30 11:39:51;;;;;;;7.72;3.55;;;23.70;34.00;;;;;;5038835;28;20021;-51
2022/01/30 11:42:19;;;;;;;7.40;3.35;;;23.70;34.00;;;;;;5046305;28;20442;-48
2022/01/30 11:45:06;;;;;;;10.32;3.70;;;23.70;33.90;;;;;;5039534;28;20029;-52
2022/01/30 11:47:58;;;;;;;9.60;3.03;;;23.60;33.90;;;;;;5047379;28;20021;-52
2022/01/30 11:50:31;;;;;;;7.43;3.30;;;23.70;33.80;;;;;;5035135;28;20124;-47
2022/01/30 11:52:59;;;;;;;6.35;2.70;;;23.60;33.80;;;;;;5031318;28;20030;-50
2022/01/30 11:55:43;;;;;;;8.48;3.42;;;23.60;33.70;;;;;;5040434;28;20033;-48
2022/01/30 11:58:30;;;;;;;8.85;3.40;;;23.70;33.60;;;;;;5040270;28;20068;-50
2022/01/30 12:00:58;;;;;;;6.05;3.00;;;23.60;33.50;;;;;;5042459;28;20052;-52
2022/01/30 12:03:28;;;;;;;7.97;3.42;;;23.60;33.60;;;;;;5038467;28;20025;-49
2022/01/30 12:05:55;;;;;;;6.25;2.97;;;23.60;33.50;;;;;;5040052;28;20032;-49
2022/01/30 12:08:47;;;;;;;8.18;3.53;;;23.60;33.50;;;;;;5039128;28;20079;-51
2022/01/30 12:11:39;;;;;;;8.48;2.58;;;23.70;33.60;;;;;;5040706;28;20038;-46
2022/01/30 12:14:19;;;;;;;6.15;2.78;;;23.60;33.50;;;;;;5047374;28;20098;-51
2022/01/30 12:16:52;;;;;;;6.90;2.80;;;23.60;33.50;;;;;;5041313;28;20068;-49
2022/01/30 12:19:39;;;;;;;7.13;2.92;;;23.60;33.80;;;;;;5046644;28;20032;-50
2022/01/30 12:22:17;;;;;;;6.53;2.50;;;23.60;33.40;;;;;;5042250;28;20037;-51
2022/01/30 12:24:44;;;;;;;5.65;2.75;;;23.60;33.30;;;;;;5052677;28;20025;-47
2022/01/30 12:27:10;;;;;;;8.48;3.10;;;23.60;33.30;;;;;;5045105;28;20089;-54
2022/01/30 12:29:40;;;;;;;8.40;3.65;;;23.60;33.20;;;;;;5041247;28;20704;-51
2022/01/30 12:32:24;;;;;;;6.53;3.10;;;23.60;33.20;;;;;;5044434;28;20083;-50
2022/01/30 12:34:56;;;;;;;7.53;2.55;;;23.60;33.10;;;;;;5050685;28;20058;-48
2022/01/30 12:37:26;;;;;;;6.25;2.75;;;23.60;33.10;;;;;;5047558;28;20333;-51
2022/01/30 12:39:54;;;;;;;4.90;2.50;;;23.60;33.10;;;;;;5039267;28;20021;-51
2022/01/30 12:42:22;;;;;;;7.53;2.92;;;23.60;33.00;;;;;;5044357;28;20459;-52
2022/01/30 12:44:48;;;;;;;6.20;2.67;;;23.60;32.90;;;;;;5050237;28;20095;-52
2022/01/30 12:47:14;;;;;;;6.88;2.72;;;23.60;32.90;;;;;;5049410;28;20116;-53
2022/01/30 12:49:49;;;;;;;6.30;2.88;;;23.60;32.90;;;;;;5042490;28;20025;-46
2022/01/30 12:52:31;;;;;;;;;;;23.60;32.80;;;;;;5044440;28;20096;-51
2022/01/30 12:54:59;;;;;;;5.65;2.55;;;23.50;32.80;;;;;;5046119;28;19947;-48
2022/01/30 12:57:27;;;;;;;6.78;1.92;;;23.50;32.80;;;;;;5034244;28;20061;-52
2022/01/30 12:59:57;;;;;;;6.13;2.70;;;23.50;32.70;;;;;;5047645;28;20088;-47
2022/01/30 13:02:28;;;;;;;5.72;2.80;;;23.60;32.70;;;;;;5051396;28;20021;-48
2022/01/30 13:05:13;;;;;;;8.00;2.78;;;23.60;32.70;;;;;;5050070;28;20099;-49
2022/01/30 13:07:39;;;;;;;6.80;2.42;;;23.60;32.50;;;;;;5041726;28;20040;-51
2022/01/30 13:10:11;;;;;;;4.93;2.15;;;23.50;32.60;;;;;;5034770;28;20029;-48
2022/01/30 13:12:37;;;;;;;5.13;2.50;;;23.50;32.50;;;;;;5037955;28;20411;-51
2022/01/30 13:15:11;;;;;;;5.60;2.22;;;23.50;32.50;;;;;;5050190;28;20017;-50
2022/01/30 13:17:38;;;;;;;5.40;2.50;;;23.60;32.40;;;;;;5037318;28;20061;-53
2022/01/30 13:20:05;;;;;;;5.70;2.38;;;23.50;32.50;;;;;;5048577;28;20020;-51
2022/01/30 13:22:36;;;;;;;6.00;2.47;;;23.50;32.50;;;;;;5050069;28;20029;-51
2022/01/30 13:25:05;;;;;;;5.35;2.38;;;23.50;32.50;;;;;;5044985;28;20053;-49
2022/01/30 13:27:31;;;;;;;6.20;2.38;;;23.50;32.50;;;;;;5035804;28;20087;-51
2022/01/30 13:29:57;;;;;;;5.38;2.55;;;23.50;32.40;;;;;;5043735;28;20021;-51
2022/01/30 13:32:25;;;;;;;5.60;2.50;;;23.60;33.10;;;;;;5041434;28;20090;-47
2022/01/30 13:34:53;;;;;;;7.25;2.45;;;23.50;32.30;;;;;;5041542;28;20417;-51
2022/01/30 13:37:20;;;;;;;6.63;2.30;;;23.60;32.30;;;;;;5036044;28;20045;-49
2022/01/30 13:42:37;;;;;;;5.18;2.35;;;23.60;32.20;;;;;;5049782;28;20031;-54
2022/01/30 13:48:07;;;;;;;7.00;2.63;;;23.60;32.10;;;;;;5050240;28;20536;-53
2022/01/30 13:50:45;;;;;;;6.05;2.50;;;23.70;32.10;;;;;;5036439;28;20072;-50
2022/01/30 13:53:28;;;;;;;5.00;2.40;;;23.70;32.10;;;;;;5040458;28;20025;-54
2022/01/30 13:56:06;;;;;;;6.07;2.40;;;23.70;31.90;;;;;;5051831;28;20056;-54
2022/01/30 13:58:41;;;;;;;6.50;2.42;;;23.70;31.90;;;;;;5039116;28;20035;-49
2022/01/30 14:01:18;;;;;;;6.35;2.55;;;23.80;31.90;;;;;;5041890;28;20025;-53
2022/01/30 14:03:46;;;;;;;5.75;2.03;;;23.70;31.70;;;;;;5037134;28;20021;-52
2022/01/30 14:06:20;;;;;;;6.93;3.00;;;23.70;31.70;;;;;;5039512;28;20444;-53
2022/01/30 14:08:59;;;;;;;5.60;2.42;;;23.80;31.70;;;;;;5038620;28;20124;-47
2022/01/30 14:11:36;;;;;;;5.63;2.08;;;23.80;31.60;;;;;;5045565;28;20098;-51
2022/01/30 14:14:10;;;;;;;7.35;2.53;;;23.80;31.60;;;;;;5053680;28;20052;-47
2022/01/30 14:16:37;;;;;;;;;;;23.80;31.60;;;;;;5053945;28;20048;-52